sensor_id;sensor_type;location;lat;lon;timestamp;pressure;altitude;pressure_sealevel;temperature;humidity
7990;BME280;4040;42.848;23.034;2023-03-25T00:01:02;94666.66;;;6.63;100.00
7990;BME280;4040;42.848;23.034;2023-03-25T00:06:55;94660.09;;;6.36;100.00
7990;BME280;4040;42.848;23.034;2023-03-25T00:12:43;94650.53;;;6.35;100.00
7990;BME280;4040;42.848;23.034;2023-03-25T00:18:34;94653.25;;;6.56;100.00
7990;BME280;4040;42.848;23.034;2023-03-25T00:24:23;94638.38;;;6.69;100.00
7990;BME280;4040;42.848;23.034;2023-03-25T00:30:14;94645.22;;;6.49;100.00
7990;BME280;4040;42.848;23.034;2023-03-25T00:36:05;94639.84;;;6.46;100.00
7990;BME280;4040;42.848;23.034;2023-03-25T00:41:54;94634.88;;;6.37;100.00
7990;BME280;4040;42.848;23.034;2023-03-25T00:47:43;94635.97;;;6.29;100.00
7990;BME280;4040;42.848;23.034;2023-03-25T00:53:34;94620.72;;;6.33;100.00
7990;BME280;4040;42.848;23.034;2023-03-25T00:59:23;94629.88;;;6.25;100.00
7990;BME280;4040;42.848;23.034;2023-03-25T01:05:12;94614.19;;;6.20;100.00
7990;BME280;4040;42.848;23.034;2023-03-25T01:11:03;94608.84;;;6.24;100.00
7990;BME280;4040;42.848;23.034;2023-03-25T01:16:52;94588.59;;;6.19;100.00
7990;BME280;4040;42.848;23.034;2023-03-25T01:22:41;94601.22;;;6.22;100.00
7990;BME280;4040;42.848;23.034;2023-03-25T01:28:31;94595.50;;;6.31;100.00
7990;BME280;4040;42.848;23.034;2023-03-25T01:34:20;94589.34;;;6.13;100.00
7990;BME280;4040;42.848;23.034;2023-03-25T01:40:10;94576.13;;;5.59;100.00
7990;BME280;4040;42.848;23.034;2023-03-25T01:46:06;94573.22;;;5.81;100.00
7990;BME280;4040;42.848;23.034;2023-03-25T01:52:03;94574.00;;;5.92;100.00
7990;BME280;4040;42.848;23.034;2023-03-25T01:57:55;94571.34;;;5.99;100.00
7990;BME280;4040;42.848;23.034;2023-03-25T02:03:47;94549.22;;;6.06;100.00
7990;BME280;4040;42.848;23.034;2023-03-25T02:09:38;94540.44;;;5.95;100.00
7990;BME280;4040;42.848;23.034;2023-03-25T02:15:31;94558.75;;;6.03;100.00
7990;BME280;4040;42.848;23.034;2023-03-25T02:22:07;94535.06;;;5.91;100.00
7990;BME280;4040;42.848;23.034;2023-03-25T02:28:12;94538.88;;;5.97;100.00
7990;BME280;4040;42.848;23.034;2023-03-25T02:40:40;94544.91;;;5.73;100.00
7990;BME280;4040;42.848;23.034;2023-03-25T02:46:32;94532.31;;;5.70;100.00
7990;BME280;4040;42.848;23.034;2023-03-25T02:52:24;94539.09;;;5.57;100.00
7990;BME280;4040;42.848;23.034;2023-03-25T02:58:17;94540.94;;;5.39;100.00
7990;BME280;4040;42.848;23.034;2023-03-25T03:04:07;94540.91;;;5.32;100.00
7990;BME280;4040;42.848;23.034;2023-03-25T03:10:00;94534.06;;;5.38;100.00
7990;BME280;4040;42.848;23.034;2023-03-25T03:15:56;94532.50;;;5.30;100.00
7990;BME280;4040;42.848;23.034;2023-03-25T03:21:55;94530.44;;;5.03;100.00
7990;BME280;4040;42.848;23.034;2023-03-25T03:27:50;94533.34;;;4.81;100.00
7990;BME280;4040;42.848;23.034;2023-03-25T03:33:47;94508.56;;;4.77;100.00
7990;BME280;4040;42.848;23.034;2023-03-25T03:39:38;94516.28;;;4.99;100.00
7990;BME280;4040;42.848;23.034;2023-03-25T03:45:31;94527.16;;;5.30;100.00
7990;BME280;4040;42.848;23.034;2023-03-25T03:51:26;94508.78;;;5.18;100.00
7990;BME280;4040;42.848;23.034;2023-03-25T03:57:20;94525.31;;;5.45;100.00
7990;BME280;4040;42.848;23.034;2023-03-25T04:03:14;94527.28;;;5.58;100.00
7990;BME280;4040;42.848;23.034;2023-03-25T04:09:10;94527.25;;;5.51;100.00
7990;BME280;4040;42.848;23.034;2023-03-25T04:15:05;94530.59;;;5.34;100.00
7990;BME280;4040;42.848;23.034;2023-03-25T04:20:55;94531.00;;;5.33;100.00
7990;BME280;4040;42.848;23.034;2023-03-25T04:26:45;94531.34;;;5.31;100.00
7990;BME280;4040;42.848;23.034;2023-03-25T04:32:35;94520.72;;;5.38;100.00
7990;BME280;4040;42.848;23.034;2023-03-25T04:38:24;94529.47;;;5.39;100.00
7990;BME280;4040;42.848;23.034;2023-03-25T04:44:15;94524.06;;;5.21;100.00
7990;BME280;4040;42.848;23.034;2023-03-25T04:50:05;94530.94;;;5.22;100.00
7990;BME280;4040;42.848;23.034;2023-03-25T04:55:54;94543.22;;;5.37;100.00
7990;BME280;4040;42.848;23.034;2023-03-25T05:01:45;94538.78;;;5.69;100.00
7990;BME280;4040;42.848;23.034;2023-03-25T05:11:36;94512.94;;;6.08;100.00
7990;BME280;4040;42.848;23.034;2023-03-25T05:17:29;94528.66;;;6.76;100.00
7990;BME280;4040;42.848;23.034;2023-03-25T05:23:18;94536.53;;;7.53;100.00
7990;BME280;4040;42.848;23.034;2023-03-25T05:29:09;94534.69;;;8.29;100.00
7990;BME280;4040;42.848;23.034;2023-03-25T05:35:01;94533.59;;;9.18;100.00
7990;BME280;4040;42.848;23.034;2023-03-25T05:40:51;94539.25;;;9.64;100.00
7990;BME280;4040;42.848;23.034;2023-03-25T05:46:40;94531.44;;;12.16;100.00
7990;BME280;4040;42.848;23.034;2023-03-25T05:52:30;94506.50;;;12.44;100.00
7990;BME280;4040;42.848;23.034;2023-03-25T05:58:18;94520.81;;;12.92;100.00
7990;BME280;4040;42.848;23.034;2023-03-25T06:04:07;94469.41;;;13.12;98.06
7990;BME280;4040;42.848;23.034;2023-03-25T06:14:22;94524.00;;;15.79;74.24
7990;BME280;4040;42.848;23.034;2023-03-25T06:20:13;94529.75;;;17.07;61.47
7990;BME280;4040;42.848;23.034;2023-03-25T06:26:02;94527.19;;;19.95;51.96
7990;BME280;4040;42.848;23.034;2023-03-25T06:31:52;94507.75;;;23.19;42.80
7990;BME280;4040;42.848;23.034;2023-03-25T06:37:43;94503.81;;;24.15;39.45
7990;BME280;4040;42.848;23.034;2023-03-25T06:43:33;94526.47;;;22.59;42.32
7990;BME280;4040;42.848;23.034;2023-03-25T06:49:24;94507.13;;;25.78;36.81
7990;BME280;4040;42.848;23.034;2023-03-25T06:55:12;94512.47;;;25.27;35.72
7990;BME280;4040;42.848;23.034;2023-03-25T07:01:02;94518.13;;;24.46;36.96
7990;BME280;4040;42.848;23.034;2023-03-25T07:06:54;94498.47;;;22.80;40.06
7990;BME280;4040;42.848;23.034;2023-03-25T07:17:08;94500.44;;;24.97;37.23
7990;BME280;4040;42.848;23.034;2023-03-25T07:22:59;94499.25;;;24.06;38.69
7990;BME280;4040;42.848;23.034;2023-03-25T07:28:48;94495.06;;;21.94;42.33
7990;BME280;4040;42.848;23.034;2023-03-25T07:34:36;94493.75;;;23.17;41.01
7990;BME280;4040;42.848;23.034;2023-03-25T07:40:27;94488.22;;;24.01;40.03
7990;BME280;4040;42.848;23.034;2023-03-25T07:46:15;94487.47;;;27.78;33.77
7990;BME280;4040;42.848;23.034;2023-03-25T07:52:04;94485.53;;;28.71;32.08
7990;BME280;4040;42.848;23.034;2023-03-25T07:57:54;94484.63;;;30.95;29.34
7990;BME280;4040;42.848;23.034;2023-03-25T08:03:44;94461.41;;;33.03;27.04
7990;BME280;4040;42.848;23.034;2023-03-25T08:09:34;94465.72;;;31.83;28.38
7990;BME280;4040;42.848;23.034;2023-03-25T08:19:46;94460.81;;;29.36;29.78
7990;BME280;4040;42.848;23.034;2023-03-25T08:25:34;94457.41;;;27.10;32.03
7990;BME280;4040;42.848;23.034;2023-03-25T08:31:26;94431.56;;;25.24;33.94
7990;BME280;4040;42.848;23.034;2023-03-25T08:37:18;94438.94;;;31.11;27.72
7990;BME280;4040;42.848;23.034;2023-03-25T08:43:07;94424.22;;;33.60;25.39
7990;BME280;4040;42.848;23.034;2023-03-25T08:48:56;94427.19;;;33.17;24.51
7990;BME280;4040;42.848;23.034;2023-03-25T08:54:46;94425.19;;;31.26;26.12
7990;BME280;4040;42.848;23.034;2023-03-25T09:00:35;94417.25;;;31.30;25.66
7990;BME280;4040;42.848;23.034;2023-03-25T09:06:24;94410.16;;;30.34;28.38
7990;BME280;4040;42.848;23.034;2023-03-25T09:12:14;94410.38;;;34.07;23.65
7990;BME280;4040;42.848;23.034;2023-03-25T09:22:25;94385.72;;;34.13;22.83
7990;BME280;4040;42.848;23.034;2023-03-25T09:28:16;94403.84;;;31.49;25.38
7990;BME280;4040;42.848;23.034;2023-03-25T09:34:04;94399.13;;;29.56;27.47
7990;BME280;4040;42.848;23.034;2023-03-25T09:39:53;94381.00;;;30.61;25.52
7990;BME280;4040;42.848;23.034;2023-03-25T09:45:44;94372.81;;;30.09;26.74
7990;BME280;4040;42.848;23.034;2023-03-25T09:51:35;94366.78;;;30.85;24.63
7990;BME280;4040;42.848;23.034;2023-03-25T09:57:27;94358.41;;;31.26;25.72
7990;BME280;4040;42.848;23.034;2023-03-25T10:03:23;94347.19;;;32.10;24.58
7990;BME280;4040;42.848;23.034;2023-03-25T10:09:25;94345.59;;;33.79;22.64
7990;BME280;4040;42.848;23.034;2023-03-25T10:15:28;94328.97;;;33.26;22.14
7990;BME280;4040;42.848;23.034;2023-03-25T10:25:44;94334.72;;;27.98;28.87
7990;BME280;4040;42.848;23.034;2023-03-25T10:31:36;94325.66;;;26.01;30.89
7990;BME280;4040;42.848;23.034;2023-03-25T10:37:29;94323.91;;;24.78;32.23
7990;BME280;4040;42.848;23.034;2023-03-25T10:43:26;94318.81;;;25.67;30.23
7990;BME280;4040;42.848;23.034;2023-03-25T10:49:16;94298.59;;;24.91;31.67
7990;BME280;4040;42.848;23.034;2023-03-25T10:55:17;94304.91;;;24.14;33.03
7990;BME280;4040;42.848;23.034;2023-03-25T11:01:16;94275.94;;;25.20;31.01
7990;BME280;4040;42.848;23.034;2023-03-25T11:07:15;94305.69;;;24.15;31.69
7990;BME280;4040;42.848;23.034;2023-03-25T11:13:11;94300.06;;;23.60;33.26
7990;BME280;4040;42.848;23.034;2023-03-25T11:19:04;94298.28;;;22.82;34.43
7990;BME280;4040;42.848;23.034;2023-03-25T11:24:58;94275.91;;;22.16;35.22
7990;BME280;4040;42.848;23.034;2023-03-25T11:31:10;94292.69;;;21.67;35.53
7990;BME280;4040;42.848;23.034;2023-03-25T11:37:03;94286.00;;;21.74;35.93
7990;BME280;4040;42.848;23.034;2023-03-25T11:42:56;94272.94;;;22.25;35.58
7990;BME280;4040;42.848;23.034;2023-03-25T11:48:46;94259.13;;;22.45;35.06
7990;BME280;4040;42.848;23.034;2023-03-25T11:54:38;94264.16;;;22.52;35.80
7990;BME280;4040;42.848;23.034;2023-03-25T12:00:38;94250.19;;;23.09;34.69
7990;BME280;4040;42.848;23.034;2023-03-25T12:06:28;94243.56;;;23.37;34.19
7990;BME280;4040;42.848;23.034;2023-03-25T12:12:29;94240.63;;;22.88;34.38
7990;BME280;4040;42.848;23.034;2023-03-25T12:18:34;94176.31;;;22.41;35.35
7990;BME280;4040;42.848;23.034;2023-03-25T12:29:07;94228.81;;;22.65;36.56
7990;BME280;4040;42.848;23.034;2023-03-25T12:41:16;94230.97;;;23.03;35.36
7990;BME280;4040;42.848;23.034;2023-03-25T12:47:18;94248.28;;;21.94;36.36
7990;BME280;4040;42.848;23.034;2023-03-25T12:53:21;94238.00;;;21.33;36.66
7990;BME280;4040;42.848;23.034;2023-03-25T12:59:25;94214.41;;;20.70;37.07
7990;BME280;4040;42.848;23.034;2023-03-25T13:05:22;94231.84;;;20.53;37.92
7990;BME280;4040;42.848;23.034;2023-03-25T13:11:14;94231.09;;;20.18;38.72
7990;BME280;4040;42.848;23.034;2023-03-25T13:17:09;94206.25;;;19.67;39.12
7990;BME280;4040;42.848;23.034;2023-03-25T13:23:04;94232.00;;;19.95;40.03
7990;BME280;4040;42.848;23.034;2023-03-25T13:28:55;94196.25;;;19.49;41.38
7990;BME280;4040;42.848;23.034;2023-03-25T13:34:49;94253.50;;;19.15;44.13
7990;BME280;4040;42.848;23.034;2023-03-25T13:40:45;94245.09;;;18.66;45.56
7990;BME280;4040;42.848;23.034;2023-03-25T13:46:40;94245.00;;;18.28;47.13
7990;BME280;4040;42.848;23.034;2023-03-25T13:52:33;94198.94;;;17.83;44.79
7990;BME280;4040;42.848;23.034;2023-03-25T13:58:38;94177.09;;;17.60;49.52
7990;BME280;4040;42.848;23.034;2023-03-25T14:05:04;94171.56;;;18.10;46.81
7990;BME280;4040;42.848;23.034;2023-03-25T14:11:15;94180.72;;;18.45;49.13
7990;BME280;4040;42.848;23.034;2023-03-25T14:17:08;94173.19;;;18.92;50.42
7990;BME280;4040;42.848;23.034;2023-03-25T14:23:02;94172.72;;;19.37;47.55
7990;BME280;4040;42.848;23.034;2023-03-25T14:28:54;94167.19;;;19.81;47.02
7990;BME280;4040;42.848;23.034;2023-03-25T14:34:46;94157.53;;;20.00;45.26
7990;BME280;4040;42.848;23.034;2023-03-25T14:40:46;94145.84;;;19.99;42.54
7990;BME280;4040;42.848;23.034;2023-03-25T14:46:35;94151.50;;;19.96;42.79
7990;BME280;4040;42.848;23.034;2023-03-25T14:52:29;94144.84;;;20.17;42.32
7990;BME280;4040;42.848;23.034;2023-03-25T14:58:21;94150.75;;;20.10;41.08
7990;BME280;4040;42.848;23.034;2023-03-25T15:04:14;94141.38;;;19.33;44.61
7990;BME280;4040;42.848;23.034;2023-03-25T15:10:07;94132.09;;;19.25;45.83
7990;BME280;4040;42.848;23.034;2023-03-25T15:16:16;94132.06;;;18.96;47.24
7990;BME280;4040;42.848;23.034;2023-03-25T15:22:17;94135.78;;;18.55;47.51
7990;BME280;4040;42.848;23.034;2023-03-25T15:28:41;94138.25;;;18.53;47.64
7990;BME280;4040;42.848;23.034;2023-03-25T15:34:52;94128.66;;;18.72;47.89
7990;BME280;4040;42.848;23.034;2023-03-25T15:41:00;94122.44;;;18.57;47.80
7990;BME280;4040;42.848;23.034;2023-03-25T15:47:07;94125.41;;;18.44;49.63
7990;BME280;4040;42.848;23.034;2023-03-25T15:59:38;94122.91;;;17.94;54.20
7990;BME280;4040;42.848;23.034;2023-03-25T16:05:30;94120.44;;;17.49;58.12
7990;BME280;4040;42.848;23.034;2023-03-25T16:11:24;94112.31;;;17.31;59.90
7990;BME280;4040;42.848;23.034;2023-03-25T16:17:13;94123.22;;;17.31;60.80
7990;BME280;4040;42.848;23.034;2023-03-25T16:23:06;94118.09;;;17.24;62.85
7990;BME280;4040;42.848;23.034;2023-03-25T16:29:05;94126.66;;;16.90;68.90
7990;BME280;4040;42.848;23.034;2023-03-25T16:34:54;94116.28;;;16.80;67.54
7990;BME280;4040;42.848;23.034;2023-03-25T16:40:45;94111.75;;;16.77;81.68
7990;BME280;4040;42.848;23.034;2023-03-25T16:46:34;94113.47;;;16.38;100.00
7990;BME280;4040;42.848;23.034;2023-03-25T16:52:25;94103.75;;;15.74;100.00
7990;BME280;4040;42.848;23.034;2023-03-25T16:58:19;94110.97;;;15.50;100.00
7990;BME280;4040;42.848;23.034;2023-03-25T17:04:11;94116.63;;;15.34;100.00
7990;BME280;4040;42.848;23.034;2023-03-25T17:10:03;94089.69;;;15.10;100.00
7990;BME280;4040;42.848;23.034;2023-03-25T17:15:53;94108.38;;;15.08;100.00
7990;BME280;4040;42.848;23.034;2023-03-25T17:22:00;94116.06;;;14.79;100.00
7990;BME280;4040;42.848;23.034;2023-03-25T17:27:48;94125.66;;;14.71;100.00
7990;BME280;4040;42.848;23.034;2023-03-25T17:33:49;94103.13;;;14.31;100.00
7990;BME280;4040;42.848;23.034;2023-03-25T17:39:38;94116.94;;;14.11;100.00
7990;BME280;4040;42.848;23.034;2023-03-25T17:45:28;94125.13;;;13.99;100.00
7990;BME280;4040;42.848;23.034;2023-03-25T17:51:20;94093.22;;;13.47;100.00
7990;BME280;4040;42.848;23.034;2023-03-25T17:57:13;94110.97;;;13.36;100.00
7990;BME280;4040;42.848;23.034;2023-03-25T18:03:08;94128.50;;;13.44;100.00
7990;BME280;4040;42.848;23.034;2023-03-25T18:08:58;94130.75;;;13.58;100.00
7990;BME280;4040;42.848;23.034;2023-03-25T18:14:47;94125.91;;;13.28;100.00
7990;BME280;4040;42.848;23.034;2023-03-25T18:20:36;94076.59;;;12.61;100.00
7990;BME280;4040;42.848;23.034;2023-03-25T18:30:42;94144.25;;;12.58;100.00
7990;BME280;4040;42.848;23.034;2023-03-25T18:36:30;94154.78;;;12.40;100.00
7990;BME280;4040;42.848;23.034;2023-03-25T18:42:19;94148.22;;;12.25;100.00
7990;BME280;4040;42.848;23.034;2023-03-25T18:48:11;94151.00;;;12.09;100.00
7990;BME280;4040;42.848;23.034;2023-03-25T18:54:01;94161.47;;;11.91;100.00
7990;BME280;4040;42.848;23.034;2023-03-25T18:59:49;94156.94;;;11.72;100.00
7990;BME280;4040;42.848;23.034;2023-03-25T19:05:40;94159.16;;;11.61;100.00
7990;BME280;4040;42.848;23.034;2023-03-25T19:11:29;94126.97;;;11.22;100.00
7990;BME280;4040;42.848;23.034;2023-03-25T19:17:19;94138.13;;;11.05;100.00
7990;BME280;4040;42.848;23.034;2023-03-25T19:23:11;94137.03;;;10.86;100.00
7990;BME280;4040;42.848;23.034;2023-03-25T19:33:23;94158.09;;;10.36;100.00
7990;BME280;4040;42.848;23.034;2023-03-25T19:39:18;94166.78;;;10.24;100.00
7990;BME280;4040;42.848;23.034;2023-03-25T19:45:10;94151.97;;;9.93;100.00
7990;BME280;4040;42.848;23.034;2023-03-25T19:50:59;94168.69;;;10.04;100.00
7990;BME280;4040;42.848;23.034;2023-03-25T19:56:50;94165.75;;;9.95;100.00
7990;BME280;4040;42.848;23.034;2023-03-25T20:02:39;94177.13;;;10.07;100.00
7990;BME280;4040;42.848;23.034;2023-03-25T20:08:28;94203.69;;;10.04;100.00
7990;BME280;4040;42.848;23.034;2023-03-25T20:14:19;94203.91;;;9.68;100.00
7990;BME280;4040;42.848;23.034;2023-03-25T20:20:10;94218.97;;;9.85;100.00
7990;BME280;4040;42.848;23.034;2023-03-25T20:25:59;94229.97;;;10.16;100.00
7990;BME280;4040;42.848;23.034;2023-03-25T20:36:11;94244.13;;;10.98;100.00
7990;BME280;4040;42.848;23.034;2023-03-25T20:42:00;94244.78;;;11.89;100.00
7990;BME280;4040;42.848;23.034;2023-03-25T20:47:49;94226.19;;;12.23;100.00
7990;BME280;4040;42.848;23.034;2023-03-25T20:53:39;94232.53;;;12.17;100.00
7990;BME280;4040;42.848;23.034;2023-03-25T20:59:28;94238.72;;;12.17;100.00
7990;BME280;4040;42.848;23.034;2023-03-25T21:05:17;94244.44;;;12.03;100.00
7990;BME280;4040;42.848;23.034;2023-03-25T21:11:07;94241.50;;;11.66;100.00
7990;BME280;4040;42.848;23.034;2023-03-25T21:16:56;94246.31;;;11.23;100.00
7990;BME280;4040;42.848;23.034;2023-03-25T21:22:45;94240.47;;;11.08;100.00
7990;BME280;4040;42.848;23.034;2023-03-25T21:28:36;94243.59;;;10.87;100.00
7990;BME280;4040;42.848;23.034;2023-03-25T21:38:47;94237.19;;;10.42;100.00
7990;BME280;4040;42.848;23.034;2023-03-25T21:44:38;94250.72;;;10.39;100.00
7990;BME280;4040;42.848;23.034;2023-03-25T21:50:27;94241.91;;;10.38;100.00
7990;BME280;4040;42.848;23.034;2023-03-25T21:56:19;94245.41;;;10.55;100.00
7990;BME280;4040;42.848;23.034;2023-03-25T22:02:12;94241.66;;;10.68;100.00
7990;BME280;4040;42.848;23.034;2023-03-25T22:08:01;94246.72;;;10.66;100.00
7990;BME280;4040;42.848;23.034;2023-03-25T22:13:50;94247.00;;;10.91;100.00
7990;BME280;4040;42.848;23.034;2023-03-25T22:19:41;94235.59;;;11.19;100.00
7990;BME280;4040;42.848;23.034;2023-03-25T22:25:29;94290.56;;;11.41;100.00
7990;BME280;4040;42.848;23.034;2023-03-25T22:31:20;94314.78;;;11.80;100.00
7990;BME280;4040;42.848;23.034;2023-03-25T22:41:35;94337.91;;;11.97;100.00
7990;BME280;4040;42.848;23.034;2023-03-25T22:47:24;94347.47;;;11.47;100.00
7990;BME280;4040;42.848;23.034;2023-03-25T22:53:13;94354.69;;;11.14;100.00
7990;BME280;4040;42.848;23.034;2023-03-25T22:59:05;94374.50;;;11.04;100.00
7990;BME280;4040;42.848;23.034;2023-03-25T23:08:28;94371.47;;;10.60;100.00
7990;BME280;4040;42.848;23.034;2023-03-25T23:14:18;94383.81;;;10.57;100.00
7990;BME280;4040;42.848;23.034;2023-03-25T23:20:07;94402.47;;;10.48;100.00
7990;BME280;4040;42.848;23.034;2023-03-25T23:26:04;94392.72;;;10.31;100.00
7990;BME280;4040;42.848;23.034;2023-03-25T23:31:54;94384.69;;;10.05;100.00
7990;BME280;4040;42.848;23.034;2023-03-25T23:37:42;94393.34;;;9.90;100.00
7990;BME280;4040;42.848;23.034;2023-03-25T23:43:33;94409.22;;;9.81;100.00
7990;BME280;4040;42.848;23.034;2023-03-25T23:49:22;94393.66;;;9.69;100.00
7990;BME280;4040;42.848;23.034;2023-03-25T23:55:11;94392.13;;;9.68;100.00
